sensor_id;sensor_type;location;lat;lon;timestamp;P1;durP1;ratioP1;P2;durP2;ratioP2
2053;SDS011;1032;52.542;13.440;2022-12-16T00:00:10;56.08;;;33.97;;
2053;SDS011;1032;52.542;13.440;2022-12-16T00:02:37;51.05;;;31.92;;
2053;SDS011;1032;52.542;13.440;2022-12-16T00:05:06;54.17;;;33.05;;
2053;SDS011;1032;52.542;13.440;2022-12-16T00:07:33;59.42;;;33.42;;
2053;SDS011;1032;52.542;13.440;2022-12-16T00:10:00;48.88;;;34.17;;
2053;SDS011;1032;52.542;13.440;2022-12-16T00:12:27;47.30;;;34.05;;
2053;SDS011;1032;52.542;13.440;2022-12-16T00:14:53;57.38;;;36.45;;
2053;SDS011;1032;52.542;13.440;2022-12-16T00:17:20;50.75;;;33.95;;
2053;SDS011;1032;52.542;13.440;2022-12-16T00:19:46;63.50;;;35.22;;
2053;SDS011;1032;52.542;13.440;2022-12-16T00:22:14;49.55;;;32.15;;
2053;SDS011;1032;52.542;13.440;2022-12-16T00:24:41;55.97;;;33.17;;
2053;SDS011;1032;52.542;13.440;2022-12-16T00:27:08;60.65;;;36.17;;
2053;SDS011;1032;52.542;13.440;2022-12-16T00:29:34;59.03;;;33.60;;
2053;SDS011;1032;52.542;13.440;2022-12-16T00:32:01;56.42;;;35.13;;
2053;SDS011;1032;52.542;13.440;2022-12-16T00:34:28;51.67;;;34.30;;
2053;SDS011;1032;52.542;13.440;2022-12-16T00:36:54;58.08;;;35.80;;
2053;SDS011;1032;52.542;13.440;2022-12-16T00:39:22;58.58;;;34.53;;
2053;SDS011;1032;52.542;13.440;2022-12-16T00:41:49;63.72;;;36.40;;
2053;SDS011;1032;52.542;13.440;2022-12-16T00:44:16;49.28;;;34.10;;
2053;SDS011;1032;52.542;13.440;2022-12-16T00:46:43;51.45;;;34.55;;
2053;SDS011;1032;52.542;13.440;2022-12-16T00:49:09;51.88;;;34.22;;
2053;SDS011;1032;52.542;13.440;2022-12-16T00:51:36;52.42;;;33.03;;
2053;SDS011;1032;52.542;13.440;2022-12-16T00:54:02;53.95;;;34.20;;
2053;SDS011;1032;52.542;13.440;2022-12-16T00:56:30;49.20;;;31.13;;
2053;SDS011;1032;52.542;13.440;2022-12-16T00:58:57;51.40;;;33.50;;
2053;SDS011;1032;52.542;13.440;2022-12-16T01:01:24;50.05;;;33.22;;
2053;SDS011;1032;52.542;13.440;2022-12-16T01:03:50;55.67;;;36.42;;
2053;SDS011;1032;52.542;13.440;2022-12-16T01:06:17;55.55;;;34.13;;
2053;SDS011;1032;52.542;13.440;2022-12-16T01:08:43;54.15;;;33.90;;
2053;SDS011;1032;52.542;13.440;2022-12-16T01:11:12;58.28;;;34.92;;
2053;SDS011;1032;52.542;13.440;2022-12-16T01:13:40;47.75;;;31.50;;
2053;SDS011;1032;52.542;13.440;2022-12-16T01:16:07;57.25;;;33.55;;
2053;SDS011;1032;52.542;13.440;2022-12-16T01:18:34;55.00;;;32.78;;
2053;SDS011;1032;52.542;13.440;2022-12-16T01:21:01;56.15;;;35.10;;
2053;SDS011;1032;52.542;13.440;2022-12-16T01:23:29;46.53;;;33.65;;
2053;SDS011;1032;52.542;13.440;2022-12-16T01:25:57;50.55;;;33.92;;
2053;SDS011;1032;52.542;13.440;2022-12-16T01:28:25;48.88;;;31.80;;
2053;SDS011;1032;52.542;13.440;2022-12-16T01:30:55;48.08;;;31.13;;
2053;SDS011;1032;52.542;13.440;2022-12-16T01:33:25;54.72;;;32.28;;
2053;SDS011;1032;52.542;13.440;2022-12-16T01:35:57;48.70;;;31.30;;
2053;SDS011;1032;52.542;13.440;2022-12-16T01:38:24;55.88;;;32.60;;
2053;SDS011;1032;52.542;13.440;2022-12-16T01:40:51;52.97;;;31.13;;
2053;SDS011;1032;52.542;13.440;2022-12-16T01:43:18;50.72;;;32.53;;
2053;SDS011;1032;52.542;13.440;2022-12-16T01:45:49;46.83;;;32.58;;
2053;SDS011;1032;52.542;13.440;2022-12-16T01:48:19;47.67;;;31.60;;
2053;SDS011;1032;52.542;13.440;2022-12-16T01:50:58;51.33;;;32.05;;
2053;SDS011;1032;52.542;13.440;2022-12-16T01:53:28;46.45;;;30.85;;
2053;SDS011;1032;52.542;13.440;2022-12-16T01:55:55;45.33;;;30.17;;
2053;SDS011;1032;52.542;13.440;2022-12-16T01:58:25;49.10;;;31.80;;
2053;SDS011;1032;52.542;13.440;2022-12-16T02:00:55;46.90;;;30.73;;
2053;SDS011;1032;52.542;13.440;2022-12-16T02:03:24;48.42;;;32.10;;
2053;SDS011;1032;52.542;13.440;2022-12-16T02:05:52;54.75;;;32.75;;
2053;SDS011;1032;52.542;13.440;2022-12-16T02:08:19;48.97;;;32.00;;
2053;SDS011;1032;52.542;13.440;2022-12-16T02:10:51;50.10;;;29.48;;
2053;SDS011;1032;52.542;13.440;2022-12-16T02:13:33;51.88;;;31.55;;
2053;SDS011;1032;52.542;13.440;2022-12-16T02:16:06;55.17;;;32.30;;
2053;SDS011;1032;52.542;13.440;2022-12-16T02:18:44;53.72;;;31.17;;
2053;SDS011;1032;52.542;13.440;2022-12-16T02:21:27;52.35;;;31.58;;
2053;SDS011;1032;52.542;13.440;2022-12-16T02:24:24;54.47;;;30.67;;
2053;SDS011;1032;52.542;13.440;2022-12-16T02:30:23;47.03;;;30.00;;
2053;SDS011;1032;52.542;13.440;2022-12-16T02:33:11;53.63;;;31.73;;
2053;SDS011;1032;52.542;13.440;2022-12-16T02:35:47;51.38;;;30.90;;
2053;SDS011;1032;52.542;13.440;2022-12-16T02:38:21;46.42;;;29.38;;
2053;SDS011;1032;52.542;13.440;2022-12-16T02:40:53;50.92;;;31.25;;
2053;SDS011;1032;52.542;13.440;2022-12-16T02:43:29;50.90;;;31.42;;
2053;SDS011;1032;52.542;13.440;2022-12-16T02:46:11;59.88;;;32.97;;
2053;SDS011;1032;52.542;13.440;2022-12-16T02:48:37;47.08;;;30.23;;
2053;SDS011;1032;52.542;13.440;2022-12-16T02:51:04;49.95;;;32.13;;
2053;SDS011;1032;52.542;13.440;2022-12-16T02:53:31;47.13;;;31.23;;
2053;SDS011;1032;52.542;13.440;2022-12-16T02:56:02;56.35;;;30.65;;
2053;SDS011;1032;52.542;13.440;2022-12-16T03:01:28;48.97;;;29.65;;
2053;SDS011;1032;52.542;13.440;2022-12-16T03:04:01;49.08;;;30.00;;
2053;SDS011;1032;52.542;13.440;2022-12-16T03:06:30;53.85;;;31.80;;
2053;SDS011;1032;52.542;13.440;2022-12-16T03:08:58;47.20;;;30.63;;
2053;SDS011;1032;52.542;13.440;2022-12-16T03:11:30;52.47;;;33.80;;
2053;SDS011;1032;52.542;13.440;2022-12-16T03:13:58;45.30;;;28.95;;
2053;SDS011;1032;52.542;13.440;2022-12-16T03:16:28;53.67;;;31.02;;
2053;SDS011;1032;52.542;13.440;2022-12-16T03:18:58;50.10;;;31.23;;
2053;SDS011;1032;52.542;13.440;2022-12-16T03:21:28;49.55;;;29.88;;
2053;SDS011;1032;52.542;13.440;2022-12-16T03:23:59;52.85;;;33.33;;
2053;SDS011;1032;52.542;13.440;2022-12-16T03:26:28;49.83;;;29.83;;
2053;SDS011;1032;52.542;13.440;2022-12-16T03:28:59;45.50;;;29.75;;
2053;SDS011;1032;52.542;13.440;2022-12-16T03:31:40;44.13;;;29.52;;
2053;SDS011;1032;52.542;13.440;2022-12-16T03:34:11;47.38;;;30.63;;
2053;SDS011;1032;52.542;13.440;2022-12-16T03:36:48;48.30;;;31.85;;
2053;SDS011;1032;52.542;13.440;2022-12-16T03:39:18;50.05;;;31.00;;
2053;SDS011;1032;52.542;13.440;2022-12-16T03:41:47;47.22;;;30.25;;
2053;SDS011;1032;52.542;13.440;2022-12-16T03:44:16;47.67;;;29.63;;
2053;SDS011;1032;52.542;13.440;2022-12-16T03:46:44;51.03;;;29.70;;
2053;SDS011;1032;52.542;13.440;2022-12-16T03:49:11;43.25;;;30.13;;
2053;SDS011;1032;52.542;13.440;2022-12-16T03:51:37;50.60;;;30.30;;
2053;SDS011;1032;52.542;13.440;2022-12-16T03:54:04;49.38;;;28.63;;
2053;SDS011;1032;52.542;13.440;2022-12-16T03:56:30;50.70;;;29.23;;
2053;SDS011;1032;52.542;13.440;2022-12-16T03:58:57;47.28;;;29.55;;
2053;SDS011;1032;52.542;13.440;2022-12-16T04:01:24;48.97;;;30.85;;
2053;SDS011;1032;52.542;13.440;2022-12-16T04:03:52;50.47;;;30.38;;
2053;SDS011;1032;52.542;13.440;2022-12-16T04:06:18;51.75;;;29.88;;
2053;SDS011;1032;52.542;13.440;2022-12-16T04:08:45;46.22;;;28.52;;
2053;SDS011;1032;52.542;13.440;2022-12-16T04:11:13;49.03;;;32.17;;
2053;SDS011;1032;52.542;13.440;2022-12-16T04:13:58;45.15;;;29.38;;
2053;SDS011;1032;52.542;13.440;2022-12-16T04:16:42;47.80;;;29.33;;
2053;SDS011;1032;52.542;13.440;2022-12-16T04:19:29;47.88;;;30.35;;
2053;SDS011;1032;52.542;13.440;2022-12-16T04:22:16;51.58;;;30.20;;
2053;SDS011;1032;52.542;13.440;2022-12-16T04:25:04;49.25;;;30.52;;
2053;SDS011;1032;52.542;13.440;2022-12-16T04:27:34;46.97;;;29.23;;
2053;SDS011;1032;52.542;13.440;2022-12-16T04:30:01;49.67;;;30.58;;
2053;SDS011;1032;52.542;13.440;2022-12-16T04:32:46;45.65;;;29.50;;
2053;SDS011;1032;52.542;13.440;2022-12-16T04:35:34;49.00;;;30.73;;
2053;SDS011;1032;52.542;13.440;2022-12-16T04:38:19;49.45;;;29.90;;
2053;SDS011;1032;52.542;13.440;2022-12-16T04:41:03;46.92;;;30.10;;
2053;SDS011;1032;52.542;13.440;2022-12-16T04:43:48;46.63;;;28.98;;
2053;SDS011;1032;52.542;13.440;2022-12-16T04:46:32;48.63;;;30.67;;
2053;SDS011;1032;52.542;13.440;2022-12-16T04:49:16;47.70;;;31.35;;
2053;SDS011;1032;52.542;13.440;2022-12-16T04:52:02;51.05;;;30.60;;
2053;SDS011;1032;52.542;13.440;2022-12-16T04:54:49;43.80;;;28.40;;
2053;SDS011;1032;52.542;13.440;2022-12-16T04:57:34;55.70;;;30.50;;
2053;SDS011;1032;52.542;13.440;2022-12-16T05:00:20;42.70;;;29.80;;
2053;SDS011;1032;52.542;13.440;2022-12-16T05:03:05;47.22;;;29.23;;
2053;SDS011;1032;52.542;13.440;2022-12-16T05:05:49;50.03;;;28.80;;
2053;SDS011;1032;52.542;13.440;2022-12-16T05:08:35;61.90;;;33.60;;
2053;SDS011;1032;52.542;13.440;2022-12-16T05:11:19;53.80;;;31.73;;
2053;SDS011;1032;52.542;13.440;2022-12-16T05:14:04;52.03;;;30.88;;
2053;SDS011;1032;52.542;13.440;2022-12-16T05:16:48;48.15;;;29.55;;
2053;SDS011;1032;52.542;13.440;2022-12-16T05:19:32;44.75;;;30.45;;
2053;SDS011;1032;52.542;13.440;2022-12-16T05:22:17;47.70;;;28.83;;
2053;SDS011;1032;52.542;13.440;2022-12-16T05:25:03;54.05;;;31.70;;
2053;SDS011;1032;52.542;13.440;2022-12-16T05:27:56;49.55;;;31.35;;
2053;SDS011;1032;52.542;13.440;2022-12-16T05:30:41;47.45;;;28.45;;
2053;SDS011;1032;52.542;13.440;2022-12-16T05:33:21;51.95;;;30.92;;
2053;SDS011;1032;52.542;13.440;2022-12-16T05:36:06;51.42;;;31.33;;
2053;SDS011;1032;52.542;13.440;2022-12-16T05:38:51;51.13;;;31.90;;
2053;SDS011;1032;52.542;13.440;2022-12-16T05:41:37;51.63;;;30.58;;
2053;SDS011;1032;52.542;13.440;2022-12-16T05:44:21;45.17;;;29.88;;
2053;SDS011;1032;52.542;13.440;2022-12-16T05:47:06;45.47;;;30.65;;
2053;SDS011;1032;52.542;13.440;2022-12-16T05:49:50;48.65;;;30.65;;
2053;SDS011;1032;52.542;13.440;2022-12-16T05:52:35;48.30;;;29.80;;
2053;SDS011;1032;52.542;13.440;2022-12-16T05:55:19;52.03;;;29.80;;
2053;SDS011;1032;52.542;13.440;2022-12-16T05:58:05;49.97;;;32.05;;
2053;SDS011;1032;52.542;13.440;2022-12-16T06:00:50;51.05;;;31.08;;
2053;SDS011;1032;52.542;13.440;2022-12-16T06:03:35;53.17;;;30.70;;
2053;SDS011;1032;52.542;13.440;2022-12-16T06:06:19;51.00;;;31.02;;
2053;SDS011;1032;52.542;13.440;2022-12-16T06:09:03;45.50;;;28.45;;
2053;SDS011;1032;52.542;13.440;2022-12-16T06:11:48;52.25;;;30.30;;
2053;SDS011;1032;52.542;13.440;2022-12-16T06:14:34;52.42;;;31.85;;
2053;SDS011;1032;52.542;13.440;2022-12-16T06:17:19;48.63;;;29.20;;
2053;SDS011;1032;52.542;13.440;2022-12-16T06:20:04;56.03;;;30.30;;
2053;SDS011;1032;52.542;13.440;2022-12-16T06:22:51;44.90;;;29.60;;
2053;SDS011;1032;52.542;13.440;2022-12-16T06:25:36;58.15;;;31.88;;
2053;SDS011;1032;52.542;13.440;2022-12-16T06:28:20;52.80;;;32.70;;
2053;SDS011;1032;52.542;13.440;2022-12-16T06:31:06;48.85;;;31.67;;
2053;SDS011;1032;52.542;13.440;2022-12-16T06:33:56;48.42;;;30.70;;
2053;SDS011;1032;52.542;13.440;2022-12-16T06:36:40;53.40;;;31.42;;
2053;SDS011;1032;52.542;13.440;2022-12-16T06:39:24;46.65;;;30.77;;
2053;SDS011;1032;52.542;13.440;2022-12-16T06:42:09;52.63;;;33.00;;
2053;SDS011;1032;52.542;13.440;2022-12-16T06:44:53;54.95;;;32.33;;
2053;SDS011;1032;52.542;13.440;2022-12-16T06:47:41;54.58;;;30.60;;
2053;SDS011;1032;52.542;13.440;2022-12-16T06:50:26;51.55;;;30.80;;
2053;SDS011;1032;52.542;13.440;2022-12-16T06:53:10;50.35;;;31.45;;
2053;SDS011;1032;52.542;13.440;2022-12-16T06:55:55;52.72;;;29.92;;
2053;SDS011;1032;52.542;13.440;2022-12-16T06:58:39;62.38;;;31.95;;
2053;SDS011;1032;52.542;13.440;2022-12-16T07:01:24;53.55;;;32.05;;
2053;SDS011;1032;52.542;13.440;2022-12-16T07:04:09;57.78;;;33.13;;
2053;SDS011;1032;52.542;13.440;2022-12-16T07:06:54;50.88;;;31.92;;
2053;SDS011;1032;52.542;13.440;2022-12-16T07:09:40;59.90;;;33.72;;
2053;SDS011;1032;52.542;13.440;2022-12-16T07:12:24;56.45;;;31.75;;
2053;SDS011;1032;52.542;13.440;2022-12-16T07:15:09;61.67;;;32.45;;
2053;SDS011;1032;52.542;13.440;2022-12-16T07:17:54;57.90;;;35.10;;
2053;SDS011;1032;52.542;13.440;2022-12-16T07:20:36;56.97;;;33.35;;
2053;SDS011;1032;52.542;13.440;2022-12-16T07:23:21;55.42;;;34.97;;
2053;SDS011;1032;52.542;13.440;2022-12-16T07:26:05;59.25;;;33.30;;
2053;SDS011;1032;52.542;13.440;2022-12-16T07:28:50;52.55;;;33.50;;
2053;SDS011;1032;52.542;13.440;2022-12-16T07:31:34;56.40;;;32.47;;
2053;SDS011;1032;52.542;13.440;2022-12-16T07:34:19;57.67;;;34.13;;
2053;SDS011;1032;52.542;13.440;2022-12-16T07:37:13;57.25;;;34.78;;
2053;SDS011;1032;52.542;13.440;2022-12-16T07:39:57;54.30;;;33.33;;
2053;SDS011;1032;52.542;13.440;2022-12-16T07:42:42;54.90;;;33.95;;
2053;SDS011;1032;52.542;13.440;2022-12-16T07:45:29;58.20;;;34.28;;
2053;SDS011;1032;52.542;13.440;2022-12-16T07:48:13;53.90;;;31.58;;
2053;SDS011;1032;52.542;13.440;2022-12-16T07:50:58;57.67;;;35.05;;
2053;SDS011;1032;52.542;13.440;2022-12-16T07:53:44;62.25;;;38.17;;
2053;SDS011;1032;52.542;13.440;2022-12-16T07:56:28;73.57;;;39.30;;
2053;SDS011;1032;52.542;13.440;2022-12-16T07:59:12;64.57;;;37.92;;
2053;SDS011;1032;52.542;13.440;2022-12-16T08:01:56;68.75;;;36.60;;
2053;SDS011;1032;52.542;13.440;2022-12-16T08:04:41;67.13;;;37.22;;
2053;SDS011;1032;52.542;13.440;2022-12-16T08:07:25;62.58;;;38.20;;
2053;SDS011;1032;52.542;13.440;2022-12-16T08:10:10;63.17;;;36.40;;
2053;SDS011;1032;52.542;13.440;2022-12-16T08:12:58;68.38;;;40.80;;
2053;SDS011;1032;52.542;13.440;2022-12-16T08:15:43;64.90;;;38.78;;
2053;SDS011;1032;52.542;13.440;2022-12-16T08:18:28;70.60;;;39.47;;
2053;SDS011;1032;52.542;13.440;2022-12-16T08:21:21;59.25;;;33.65;;
2053;SDS011;1032;52.542;13.440;2022-12-16T08:24:05;59.03;;;37.10;;
2053;SDS011;1032;52.542;13.440;2022-12-16T08:26:51;60.08;;;35.15;;
2053;SDS011;1032;52.542;13.440;2022-12-16T08:29:35;60.33;;;34.58;;
2053;SDS011;1032;52.542;13.440;2022-12-16T08:32:20;56.17;;;33.83;;
2053;SDS011;1032;52.542;13.440;2022-12-16T08:35:05;52.63;;;34.13;;
2053;SDS011;1032;52.542;13.440;2022-12-16T08:37:50;53.60;;;32.38;;
2053;SDS011;1032;52.542;13.440;2022-12-16T08:40:38;56.80;;;35.05;;
2053;SDS011;1032;52.542;13.440;2022-12-16T08:43:23;48.08;;;32.72;;
2053;SDS011;1032;52.542;13.440;2022-12-16T08:46:08;51.22;;;33.15;;
2053;SDS011;1032;52.542;13.440;2022-12-16T08:48:52;57.70;;;33.20;;
2053;SDS011;1032;52.542;13.440;2022-12-16T08:51:42;61.60;;;32.67;;
2053;SDS011;1032;52.542;13.440;2022-12-16T08:54:26;49.58;;;31.25;;
2053;SDS011;1032;52.542;13.440;2022-12-16T08:57:10;53.88;;;32.78;;
2053;SDS011;1032;52.542;13.440;2022-12-16T08:59:56;52.50;;;32.45;;
2053;SDS011;1032;52.542;13.440;2022-12-16T09:02:40;59.72;;;39.13;;
2053;SDS011;1032;52.542;13.440;2022-12-16T09:05:24;52.95;;;34.65;;
2053;SDS011;1032;52.542;13.440;2022-12-16T09:08:08;53.03;;;35.70;;
2053;SDS011;1032;52.542;13.440;2022-12-16T09:10:53;61.67;;;36.30;;
2053;SDS011;1032;52.542;13.440;2022-12-16T09:13:37;45.67;;;31.80;;
2053;SDS011;1032;52.542;13.440;2022-12-16T09:16:22;56.67;;;35.35;;
2053;SDS011;1032;52.542;13.440;2022-12-16T09:19:06;58.63;;;36.58;;
2053;SDS011;1032;52.542;13.440;2022-12-16T09:21:51;55.45;;;35.15;;
2053;SDS011;1032;52.542;13.440;2022-12-16T09:24:35;64.28;;;34.63;;
2053;SDS011;1032;52.542;13.440;2022-12-16T09:27:19;58.45;;;34.53;;
2053;SDS011;1032;52.542;13.440;2022-12-16T09:30:04;62.58;;;36.97;;
2053;SDS011;1032;52.542;13.440;2022-12-16T09:32:50;56.78;;;36.60;;
2053;SDS011;1032;52.542;13.440;2022-12-16T09:35:34;58.30;;;34.80;;
2053;SDS011;1032;52.542;13.440;2022-12-16T09:38:19;52.08;;;39.22;;
2053;SDS011;1032;52.542;13.440;2022-12-16T09:41:08;51.63;;;34.35;;
2053;SDS011;1032;52.542;13.440;2022-12-16T09:44:13;51.50;;;34.08;;
2053;SDS011;1032;52.542;13.440;2022-12-16T09:47:04;50.40;;;32.08;;
2053;SDS011;1032;52.542;13.440;2022-12-16T09:49:56;58.75;;;35.30;;
2053;SDS011;1032;52.542;13.440;2022-12-16T09:52:41;49.40;;;32.72;;
2053;SDS011;1032;52.542;13.440;2022-12-16T09:55:29;57.42;;;32.53;;
2053;SDS011;1032;52.542;13.440;2022-12-16T09:58:17;52.95;;;33.72;;
2053;SDS011;1032;52.542;13.440;2022-12-16T10:01:04;55.55;;;33.60;;
2053;SDS011;1032;52.542;13.440;2022-12-16T10:03:49;54.28;;;34.42;;
2053;SDS011;1032;52.542;13.440;2022-12-16T10:06:37;53.53;;;34.85;;
2053;SDS011;1032;52.542;13.440;2022-12-16T10:09:27;49.17;;;33.80;;
2053;SDS011;1032;52.542;13.440;2022-12-16T10:12:17;51.83;;;32.72;;
2053;SDS011;1032;52.542;13.440;2022-12-16T10:15:12;48.20;;;33.80;;
2053;SDS011;1032;52.542;13.440;2022-12-16T10:18:03;51.38;;;32.90;;
2053;SDS011;1032;52.542;13.440;2022-12-16T10:20:55;53.90;;;33.60;;
2053;SDS011;1032;52.542;13.440;2022-12-16T10:23:42;55.58;;;34.55;;
2053;SDS011;1032;52.542;13.440;2022-12-16T10:26:35;52.15;;;34.28;;
2053;SDS011;1032;52.542;13.440;2022-12-16T10:29:33;59.50;;;34.90;;
2053;SDS011;1032;52.542;13.440;2022-12-16T10:32:36;65.13;;;36.88;;
2053;SDS011;1032;52.542;13.440;2022-12-16T10:35:30;58.03;;;36.13;;
2053;SDS011;1032;52.542;13.440;2022-12-16T10:38:19;51.00;;;34.47;;
2053;SDS011;1032;52.542;13.440;2022-12-16T10:41:07;52.88;;;33.63;;
2053;SDS011;1032;52.542;13.440;2022-12-16T10:43:54;50.88;;;35.85;;
2053;SDS011;1032;52.542;13.440;2022-12-16T10:46:39;49.35;;;34.00;;
2053;SDS011;1032;52.542;13.440;2022-12-16T10:49:23;58.08;;;35.03;;
2053;SDS011;1032;52.542;13.440;2022-12-16T10:52:08;49.50;;;33.83;;
2053;SDS011;1032;52.542;13.440;2022-12-16T10:54:59;52.15;;;35.20;;
2053;SDS011;1032;52.542;13.440;2022-12-16T10:57:54;54.90;;;33.78;;
2053;SDS011;1032;52.542;13.440;2022-12-16T11:00:45;48.40;;;34.67;;
2053;SDS011;1032;52.542;13.440;2022-12-16T11:03:32;58.85;;;33.92;;
2053;SDS011;1032;52.542;13.440;2022-12-16T11:06:20;54.60;;;34.55;;
2053;SDS011;1032;52.542;13.440;2022-12-16T11:09:13;54.83;;;37.33;;
2053;SDS011;1032;52.542;13.440;2022-12-16T11:12:18;57.60;;;36.13;;
2053;SDS011;1032;52.542;13.440;2022-12-16T11:18:12;59.38;;;37.63;;
2053;SDS011;1032;52.542;13.440;2022-12-16T11:21:05;54.42;;;36.10;;
2053;SDS011;1032;52.542;13.440;2022-12-16T11:24:08;51.35;;;36.35;;
2053;SDS011;1032;52.542;13.440;2022-12-16T11:26:55;62.55;;;36.85;;
2053;SDS011;1032;52.542;13.440;2022-12-16T11:29:53;60.55;;;37.65;;
2053;SDS011;1032;52.542;13.440;2022-12-16T11:32:41;53.97;;;34.70;;
2053;SDS011;1032;52.542;13.440;2022-12-16T11:35:29;52.83;;;34.47;;
2053;SDS011;1032;52.542;13.440;2022-12-16T11:38:17;56.22;;;41.95;;
2053;SDS011;1032;52.542;13.440;2022-12-16T11:41:06;53.22;;;37.13;;
2053;SDS011;1032;52.542;13.440;2022-12-16T11:47:01;50.45;;;35.83;;
2053;SDS011;1032;52.542;13.440;2022-12-16T11:49:49;49.00;;;33.80;;
2053;SDS011;1032;52.542;13.440;2022-12-16T11:52:34;57.60;;;35.63;;
2053;SDS011;1032;52.542;13.440;2022-12-16T11:55:20;54.45;;;36.13;;
2053;SDS011;1032;52.542;13.440;2022-12-16T11:58:11;52.22;;;35.92;;
2053;SDS011;1032;52.542;13.440;2022-12-16T12:01:02;56.72;;;37.03;;
2053;SDS011;1032;52.542;13.440;2022-12-16T12:03:52;53.30;;;34.55;;
2053;SDS011;1032;52.542;13.440;2022-12-16T12:06:44;53.13;;;35.17;;
2053;SDS011;1032;52.542;13.440;2022-12-16T12:09:43;50.50;;;34.17;;
2053;SDS011;1032;52.542;13.440;2022-12-16T12:12:35;49.38;;;33.65;;
2053;SDS011;1032;52.542;13.440;2022-12-16T12:15:26;44.72;;;32.65;;
2053;SDS011;1032;52.542;13.440;2022-12-16T12:18:17;47.92;;;33.08;;
2053;SDS011;1032;52.542;13.440;2022-12-16T12:21:10;46.45;;;34.20;;
2053;SDS011;1032;52.542;13.440;2022-12-16T12:24:07;47.90;;;36.88;;
2053;SDS011;1032;52.542;13.440;2022-12-16T12:27:02;49.67;;;36.67;;
2053;SDS011;1032;52.542;13.440;2022-12-16T12:29:54;44.55;;;33.22;;
2053;SDS011;1032;52.542;13.440;2022-12-16T12:32:47;46.50;;;32.13;;
2053;SDS011;1032;52.542;13.440;2022-12-16T12:35:43;49.53;;;32.22;;
2053;SDS011;1032;52.542;13.440;2022-12-16T12:38:37;46.20;;;33.83;;
2053;SDS011;1032;52.542;13.440;2022-12-16T12:41:33;46.55;;;31.77;;
2053;SDS011;1032;52.542;13.440;2022-12-16T12:44:26;47.42;;;32.60;;
2053;SDS011;1032;52.542;13.440;2022-12-16T12:47:20;49.05;;;38.08;;
2053;SDS011;1032;52.542;13.440;2022-12-16T12:50:07;43.75;;;32.88;;
2053;SDS011;1032;52.542;13.440;2022-12-16T12:53:02;45.80;;;31.55;;
2053;SDS011;1032;52.542;13.440;2022-12-16T12:55:59;43.92;;;31.45;;
2053;SDS011;1032;52.542;13.440;2022-12-16T12:58:53;46.40;;;30.98;;
2053;SDS011;1032;52.542;13.440;2022-12-16T13:01:42;46.90;;;31.20;;
2053;SDS011;1032;52.542;13.440;2022-12-16T13:04:28;52.35;;;35.40;;
2053;SDS011;1032;52.542;13.440;2022-12-16T13:07:13;51.40;;;38.17;;
2053;SDS011;1032;52.542;13.440;2022-12-16T13:10:17;51.57;;;36.00;;
2053;SDS011;1032;52.542;13.440;2022-12-16T13:13:24;45.80;;;33.00;;
2053;SDS011;1032;52.542;13.440;2022-12-16T13:19:42;48.03;;;37.07;;
2053;SDS011;1032;52.542;13.440;2022-12-16T13:22:27;52.83;;;37.60;;
2053;SDS011;1032;52.542;13.440;2022-12-16T13:25:28;54.05;;;33.92;;
2053;SDS011;1032;52.542;13.440;2022-12-16T13:28:22;50.00;;;33.38;;
2053;SDS011;1032;52.542;13.440;2022-12-16T13:31:19;47.42;;;34.60;;
2053;SDS011;1032;52.542;13.440;2022-12-16T13:34:06;52.28;;;34.20;;
2053;SDS011;1032;52.542;13.440;2022-12-16T13:37:04;45.38;;;32.55;;
2053;SDS011;1032;52.542;13.440;2022-12-16T13:39:56;52.03;;;34.58;;
2053;SDS011;1032;52.542;13.440;2022-12-16T13:42:50;52.47;;;35.83;;
2053;SDS011;1032;52.542;13.440;2022-12-16T13:45:37;46.28;;;32.20;;
2053;SDS011;1032;52.542;13.440;2022-12-16T13:48:27;43.65;;;31.50;;
2053;SDS011;1032;52.542;13.440;2022-12-16T13:54:40;49.60;;;34.17;;
2053;SDS011;1032;52.542;13.440;2022-12-16T13:57:29;46.15;;;32.53;;
2053;SDS011;1032;52.542;13.440;2022-12-16T14:00:20;59.22;;;35.45;;
2053;SDS011;1032;52.542;13.440;2022-12-16T14:03:08;51.42;;;34.75;;
2053;SDS011;1032;52.542;13.440;2022-12-16T14:05:57;47.22;;;33.40;;
2053;SDS011;1032;52.542;13.440;2022-12-16T14:08:42;49.90;;;35.60;;
2053;SDS011;1032;52.542;13.440;2022-12-16T14:11:29;54.50;;;36.95;;
2053;SDS011;1032;52.542;13.440;2022-12-16T14:14:22;59.28;;;36.60;;
2053;SDS011;1032;52.542;13.440;2022-12-16T14:17:11;49.42;;;35.92;;
2053;SDS011;1032;52.542;13.440;2022-12-16T14:20:19;51.42;;;35.05;;
2053;SDS011;1032;52.542;13.440;2022-12-16T14:23:11;59.33;;;40.47;;
2053;SDS011;1032;52.542;13.440;2022-12-16T14:26:08;57.40;;;40.58;;
2053;SDS011;1032;52.542;13.440;2022-12-16T14:28:56;55.72;;;40.03;;
2053;SDS011;1032;52.542;13.440;2022-12-16T14:31:41;58.67;;;36.90;;
2053;SDS011;1032;52.542;13.440;2022-12-16T14:34:27;56.42;;;38.50;;
2053;SDS011;1032;52.542;13.440;2022-12-16T14:37:14;56.85;;;37.08;;
2053;SDS011;1032;52.542;13.440;2022-12-16T14:40:03;54.33;;;41.67;;
2053;SDS011;1032;52.542;13.440;2022-12-16T14:43:00;56.42;;;39.30;;
2053;SDS011;1032;52.542;13.440;2022-12-16T14:45:48;55.65;;;37.60;;
2053;SDS011;1032;52.542;13.440;2022-12-16T14:48:33;55.28;;;42.20;;
2053;SDS011;1032;52.542;13.440;2022-12-16T14:51:23;62.30;;;42.97;;
2053;SDS011;1032;52.542;13.440;2022-12-16T14:54:15;53.20;;;37.90;;
2053;SDS011;1032;52.542;13.440;2022-12-16T14:57:09;57.60;;;37.08;;
2053;SDS011;1032;52.542;13.440;2022-12-16T15:00:00;52.65;;;35.72;;
2053;SDS011;1032;52.542;13.440;2022-12-16T15:02:54;54.22;;;36.15;;
2053;SDS011;1032;52.542;13.440;2022-12-16T15:05:39;51.72;;;34.20;;
2053;SDS011;1032;52.542;13.440;2022-12-16T15:08:26;52.83;;;36.15;;
2053;SDS011;1032;52.542;13.440;2022-12-16T15:11:13;58.90;;;36.67;;
2053;SDS011;1032;52.542;13.440;2022-12-16T15:14:01;53.13;;;35.95;;
2053;SDS011;1032;52.542;13.440;2022-12-16T15:16:46;58.05;;;41.45;;
2053;SDS011;1032;52.542;13.440;2022-12-16T15:19:35;60.08;;;38.50;;
2053;SDS011;1032;52.542;13.440;2022-12-16T15:22:24;63.63;;;35.85;;
2053;SDS011;1032;52.542;13.440;2022-12-16T15:25:15;57.28;;;37.47;;
2053;SDS011;1032;52.542;13.440;2022-12-16T15:28:01;55.33;;;37.03;;
2053;SDS011;1032;52.542;13.440;2022-12-16T15:30:46;52.65;;;35.20;;
2053;SDS011;1032;52.542;13.440;2022-12-16T15:33:31;56.83;;;35.85;;
2053;SDS011;1032;52.542;13.440;2022-12-16T15:36:21;59.08;;;38.08;;
2053;SDS011;1032;52.542;13.440;2022-12-16T15:39:09;58.05;;;37.60;;
2053;SDS011;1032;52.542;13.440;2022-12-16T15:41:54;58.05;;;35.83;;
2053;SDS011;1032;52.542;13.440;2022-12-16T15:44:39;59.38;;;39.90;;
2053;SDS011;1032;52.542;13.440;2022-12-16T15:47:31;54.78;;;38.55;;
2053;SDS011;1032;52.542;13.440;2022-12-16T15:50:18;56.38;;;42.10;;
2053;SDS011;1032;52.542;13.440;2022-12-16T15:53:16;53.10;;;37.58;;
2053;SDS011;1032;52.542;13.440;2022-12-16T15:56:17;54.72;;;38.50;;
2053;SDS011;1032;52.542;13.440;2022-12-16T15:59:12;60.03;;;39.17;;
2053;SDS011;1032;52.542;13.440;2022-12-16T16:02:04;62.67;;;44.47;;
2053;SDS011;1032;52.542;13.440;2022-12-16T16:04:52;57.20;;;44.33;;
2053;SDS011;1032;52.542;13.440;2022-12-16T16:07:36;60.83;;;45.27;;
2053;SDS011;1032;52.542;13.440;2022-12-16T16:10:23;57.72;;;41.53;;
2053;SDS011;1032;52.542;13.440;2022-12-16T16:13:07;57.95;;;40.85;;
2053;SDS011;1032;52.542;13.440;2022-12-16T16:15:52;58.10;;;38.22;;
2053;SDS011;1032;52.542;13.440;2022-12-16T16:18:37;54.30;;;36.97;;
2053;SDS011;1032;52.542;13.440;2022-12-16T16:21:21;62.60;;;42.10;;
2053;SDS011;1032;52.542;13.440;2022-12-16T16:24:05;58.70;;;39.25;;